| time (UTC) | temp F | wind direction | speed MPH | gust MPH | rain 1hr in | rain 24hr in | rain mn in | humidity % | barometer mb |
| 20260510211520 | 44 | 0.0 | 0.0 | 0.00 | 0.00 | 0.00 | 84 | 1000.9 | |
| 20260510210521 | 44 | 0.0 | 0.0 | 0.00 | 0.00 | 0.00 | 82 | 1001.0 | |
| 20260510205520 | 44 | 0.0 | 0.0 | 0.00 | 0.00 | 0.00 | 82 | 1001.0 | |
| 20260510204539 | 45 | 0.0 | 0.0 | 0.00 | 0.00 | 0.00 | 81 | 1001.1 | |
| 20260510203539 | 45 | 0.0 | 0.0 | 0.00 | 0.00 | 0.00 | 80 | 1001.2 | |
| 20260510202519 | 45 | 0.0 | 0.0 | 0.00 | 0.00 | 0.00 | 79 | 1001.2 | |
| 20260510201520 | 46 | 0.0 | 0.0 | 0.00 | 0.00 | 0.00 | 79 | 1001.2 | |
| 20260510200520 | 46 | 0.0 | 0.0 | 0.00 | 0.00 | 0.00 | 79 | 1001.2 | |
| 20260510195540 | 46 | 0.0 | 0.0 | 0.00 | 0.00 | 0.00 | 77 | 1001.3 | |
| 20260510194519 | 46 | 0.0 | 0.0 | 0.00 | 0.00 | 0.00 | 77 | 1001.4 | |
| 20260510193520 | 47 | 0.0 | 0.0 | 0.00 | 0.00 | 0.00 | 75 | 1001.4 | |
| 20260510192520 | 47 | 0.0 | 0.0 | 0.00 | 0.00 | 0.00 | 74 | 1001.4 | |
| 20260510191520 | 48 | 0.0 | 0.0 | 0.00 | 0.00 | 0.00 | 73 | 1001.4 | |
| 20260510190519 | 48 | 0.0 | 0.0 | 0.00 | 0.00 | 0.00 | 72 | 1001.3 | |
| 20260510185519 | 49 | 0.0 | 0.0 | 0.00 | 0.00 | 0.00 | 71 | 1001.3 | |
| 20260510184520 | 49 | 0.0 | 0.0 | 0.00 | 0.00 | 0.00 | 69 | 1001.4 | |
| 20260510183520 | 49 | 0.0 | 2.0 | 0.00 | 0.00 | 0.00 | 67 | 1001.2 | |
| 20260510182520 | 49 | 0.0 | 2.0 | 0.00 | 0.00 | 0.00 | 66 | 1001.3 | |
| 20260510181519 | 49 | 135 | 2.0 | 6.0 | 0.00 | 0.00 | 0.00 | 65 | 1001.5 |
| 20260510180519 | 50 | 135 | 1.0 | 5.0 | 0.00 | 0.00 | 0.00 | 64 | 1001.6 |
| 20260510175519 | 50 | 135 | 1.0 | 5.0 | 0.00 | 0.00 | 0.00 | 62 | 1001.6 |
| 20260510174519 | 50 | 135 | 1.0 | 4.0 | 0.00 | 0.00 | 0.00 | 59 | 1001.7 |
| 20260510173519 | 51 | 135 | 2.0 | 7.0 | 0.00 | 0.00 | 0.00 | 57 | 1001.7 |
| 20260510172540 | 51 | 135 | 2.0 | 7.0 | 0.00 | 0.00 | 0.00 | 55 | 1001.7 |
| 20260510171519 | 52 | 135 | 3.0 | 8.0 | 0.00 | 0.00 | 0.00 | 51 | 1001.8 |
| 20260510170522 | 53 | 135 | 2.0 | 6.0 | 0.00 | 0.00 | 0.00 | 48 | 1001.9 |
| 20260510165540 | 54 | 135 | 2.0 | 7.0 | 0.00 | 0.00 | 0.00 | 46 | 1002.1 |
| 20260510164519 | 54 | 135 | 2.0 | 6.0 | 0.00 | 0.00 | 0.00 | 44 | 1002.3 |
| 20260510163520 | 54 | 135 | 2.0 | 7.0 | 0.00 | 0.00 | 0.00 | 41 | 1002.3 |
| 20260510162519 | 55 | 225 | 1.0 | 5.0 | 0.00 | 0.00 | 0.00 | 39 | 1002.4 |
| 20260510161540 | 55 | 248 | 2.0 | 6.0 | 0.00 | 0.00 | 0.00 | 37 | 1002.5 |
| 20260510160519 | 55 | 270 | 3.0 | 9.0 | 0.00 | 0.00 | 0.00 | 36 | 1002.6 |
| 20260510155519 | 56 | 225 | 2.0 | 7.0 | 0.00 | 0.00 | 0.00 | 34 | 1002.6 |
| 20260510154539 | 57 | 248 | 3.0 | 10.0 | 0.00 | 0.00 | 0.00 | 32 | 1002.9 |
| 20260510153520 | 57 | 225 | 4.0 | 11.0 | 0.00 | 0.00 | 0.00 | 30 | 1003.1 |
| 20260510152519 | 57 | 248 | 3.0 | 7.0 | 0.00 | 0.00 | 0.00 | 30 | 1003.1 |
| 20260510151519 | 58 | 270 | 3.0 | 10.0 | 0.00 | 0.00 | 0.00 | 29 | 1003.2 |
| 20260510150519 | 58 | 135 | 4.0 | 10.0 | 0.00 | 0.00 | 0.00 | 30 | 1003.3 |
| 20260510145539 | 58 | 270 | 3.0 | 12.0 | 0.00 | 0.00 | 0.00 | 34 | 1003.5 |
| 20260510144542 | 59 | 225 | 4.0 | 10.0 | 0.00 | 0.00 | 0.00 | 35 | 1003.5 |
| 20260510143519 | 59 | 203 | 3.0 | 9.0 | 0.00 | 0.00 | 0.00 | 36 | 1003.6 |
| 20260510142519 | 59 | 203 | 3.0 | 12.0 | 0.00 | 0.00 | 0.00 | 37 | 1003.7 |
| 20260510141519 | 59 | 270 | 3.0 | 7.0 | 0.00 | 0.00 | 0.00 | 36 | 1003.9 |
| 20260510140519 | 59 | 203 | 3.0 | 11.0 | 0.00 | 0.00 | 0.00 | 36 | 1004.1 |
| 20260510135521 | 59 | 270 | 2.0 | 8.0 | 0.00 | 0.00 | 0.00 | 36 | 1004.1 |
| 20260510134519 | 59 | 135 | 4.0 | 12.0 | 0.00 | 0.00 | 0.00 | 36 | 1004.2 |
| 20260510133519 | 60 | 135 | 3.0 | 12.0 | 0.00 | 0.00 | 0.00 | 34 | 1004.4 |
| 20260510132519 | 59 | 203 | 3.0 | 9.0 | 0.00 | 0.00 | 0.00 | 35 | 1004.6 |
| 20260510131520 | 59 | 45 | 2.0 | 7.0 | 0.00 | 0.00 | 0.00 | 36 | 1004.7 |
| 20260510130519 | 59 | 248 | 5.0 | 13.0 | 0.00 | 0.00 | 0.00 | 34 | 1004.9 |
| 20260510125519 | 59 | 113 | 3.0 | 7.0 | 0.00 | 0.00 | 0.00 | 34 | 1005.1 |
| 20260510124545 | 60 | 248 | 4.0 | 9.0 | 0.00 | 0.00 | 0.00 | 35 | 1005.2 |
| 20260510123519 | 60 | 113 | 4.0 | 11.0 | 0.00 | 0.00 | 0.00 | 36 | 1005.4 |
| 20260510122519 | 60 | 158 | 1.0 | 6.0 | 0.00 | 0.00 | 0.00 | 37 | 1005.5 |
| 20260510121539 | 59 | 135 | 5.0 | 12.0 | 0.00 | 0.00 | 0.00 | 37 | 1005.6 |
| 20260510120520 | 60 | 135 | 2.0 | 7.0 | 0.00 | 0.00 | 0.00 | 37 | 1005.7 |
| 20260510115519 | 59 | 135 | 4.0 | 11.0 | 0.00 | 0.00 | 0.00 | 37 | 1005.8 |
| 20260510114519 | 59 | 248 | 4.0 | 11.0 | 0.00 | 0.00 | 0.00 | 37 | 1006.0 |
| 20260510113523 | 60 | 135 | 2.0 | 12.0 | 0.00 | 0.00 | 0.00 | 36 | 1006.1 |
| 20260510112519 | 59 | 135 | 2.0 | 9.0 | 0.00 | 0.00 | 0.00 | 36 | 1006.3 |
| 20260510111519 | 59 | 270 | 4.0 | 16.0 | 0.00 | 0.00 | 0.00 | 38 | 1006.5 |
| 20260510110519 | 59 | 248 | 3.0 | 11.0 | 0.00 | 0.00 | 0.00 | 36 | 1006.7 |
| 20260510105539 | 59 | 270 | 3.0 | 11.0 | 0.00 | 0.00 | 0.00 | 36 | 1006.7 |
| 20260510104519 | 59 | 203 | 3.0 | 12.0 | 0.00 | 0.00 | 0.00 | 35 | 1006.9 |
| 20260510103519 | 58 | 135 | 5.0 | 11.0 | 0.00 | 0.00 | 0.00 | 36 | 1007.0 |
| 20260510102519 | 59 | 135 | 3.0 | 9.0 | 0.00 | 0.00 | 0.00 | 36 | 1007.2 |
| 20260510101604 | 59 | 135 | 4.0 | 12.0 | 0.00 | 0.00 | 0.00 | 35 | 1007.3 |
| 20260510100539 | 58 | 270 | 2.0 | 9.0 | 0.00 | 0.00 | 0.00 | 36 | 1007.4 |
| 20260510095519 | 59 | 270 | 2.0 | 7.0 | 0.00 | 0.00 | 0.00 | 35 | 1007.6 |
| 20260510094518 | 58 | 203 | 1.0 | 5.0 | 0.00 | 0.00 | 0.00 | 36 | 1007.7 |
| 20260510093518 | 58 | 113 | 3.0 | 8.0 | 0.00 | 0.00 | 0.00 | 36 | 1007.9 |
| 20260510092518 | 57 | 135 | 3.0 | 11.0 | 0.00 | 0.00 | 0.00 | 35 | 1008.0 |
| 20260510091559 | 58 | 135 | 3.0 | 7.0 | 0.00 | 0.00 | 0.00 | 35 | 1008.0 |
| 20260510090518 | 58 | 203 | 2.0 | 9.0 | 0.00 | 0.00 | 0.00 | 35 | 1008.1 |
| 20260510085519 | 57 | 135 | 3.0 | 8.0 | 0.00 | 0.00 | 0.00 | 36 | 1008.2 |
| 20260510084519 | 58 | 225 | 1.0 | 3.0 | 0.00 | 0.00 | 0.00 | 36 | 1008.3 |
| 20260510083539 | 56 | 135 | 2.0 | 7.0 | 0.00 | 0.00 | 0.00 | 37 | 1008.5 |
| 20260510082518 | 56 | 113 | 4.0 | 14.0 | 0.00 | 0.00 | 0.00 | 36 | 1008.7 |
| 20260510081538 | 57 | 135 | 2.0 | 5.0 | 0.00 | 0.00 | 0.00 | 37 | 1008.8 |
| 20260510080518 | 56 | 113 | 3.0 | 7.0 | 0.00 | 0.00 | 0.00 | 38 | 1008.9 |
| 20260510075519 | 56 | 135 | 2.0 | 8.0 | 0.00 | 0.00 | 0.00 | 42 | 1009.0 |
| 20260510074518 | 55 | 135 | 3.0 | 7.0 | 0.00 | 0.00 | 0.00 | 42 | 1009.2 |
| 20260510073519 | 55 | 135 | 4.0 | 8.0 | 0.00 | 0.00 | 0.00 | 45 | 1009.2 |
| 20260510072519 | 55 | 135 | 2.0 | 6.0 | 0.00 | 0.00 | 0.00 | 47 | 1009.3 |
| 20260510071559 | 54 | 135 | 3.0 | 8.0 | 0.00 | 0.00 | 0.00 | 45 | 1009.5 |
| 20260510070519 | 54 | 113 | 2.0 | 7.0 | 0.00 | 0.00 | 0.00 | 46 | 1009.7 |
| 20260510065519 | 54 | 135 | 2.0 | 6.0 | 0.00 | 0.00 | 0.00 | 46 | 1009.8 |
| 20260510064519 | 54 | 135 | 1.0 | 8.0 | 0.00 | 0.00 | 0.00 | 48 | 1009.9 |
| 20260510063519 | 53 | 135 | 2.0 | 4.0 | 0.00 | 0.00 | 0.00 | 50 | 1009.9 |
| 20260510062518 | 53 | 135 | 2.0 | 5.0 | 0.00 | 0.00 | 0.00 | 51 | 1010.1 |
| 20260510061518 | 52 | 45 | 1.0 | 4.0 | 0.00 | 0.00 | 0.00 | 55 | 1010.2 |
| 20260510060538 | 51 | 135 | 3.0 | 7.0 | 0.00 | 0.00 | 0.00 | 57 | 1010.2 |
| 20260510055518 | 50 | 135 | 2.0 | 7.0 | 0.00 | 0.00 | 0.00 | 58 | 1010.3 |
| 20260510054518 | 50 | 135 | 2.0 | 6.0 | 0.00 | 0.00 | 0.00 | 60 | 1010.4 |
| 20260510053519 | 49 | 113 | 1.0 | 4.0 | 0.00 | 0.00 | 0.00 | 64 | 1010.5 |
| 20260510052519 | 48 | 113 | 1.0 | 8.0 | 0.00 | 0.00 | 0.00 | 64 | 1010.6 |
| 20260510051518 | 47 | 135 | 2.0 | 4.0 | 0.00 | 0.00 | 0.00 | 66 | 1010.7 |
| 20260510050519 | 47 | 0.0 | 3.0 | 0.00 | 0.00 | 0.00 | 68 | 1010.7 | |
| 20260510045518 | 45 | 0.0 | 2.0 | 0.00 | 0.00 | 0.00 | 71 | 1010.9 | |
| 20260510044518 | 44 | 0.0 | 0.0 | 0.00 | 0.00 | 0.00 | 75 | 1011.0 | |
| 20260510043519 | 43 | 0.0 | 1.0 | 0.00 | 0.00 | 0.00 | 77 | 1011.2 | |
| 20260510042518 | 42 | 0.0 | 0.0 | 0.00 | 0.00 | 0.00 | 80 | 1011.3 | |
| 20260510041538 | 41 | 0.0 | 0.0 | 0.00 | 0.00 | 0.00 | 83 | 1011.4 | |
| 20260510040520 | 40 | 0.0 | 0.0 | 0.00 | 0.00 | 0.00 | 86 | 1011.5 | |
| 20260510035520 | 38 | 0.0 | 0.0 | 0.00 | 0.00 | 0.00 | 91 | 1011.8 | |
| 20260510034523 | 36 | 0.0 | 1.0 | 0.00 | 0.00 | 0.00 | 92 | 1012.0 | |
| 20260510033521 | 34 | 0.0 | 0.0 | 0.00 | 0.00 | 0.00 | 93 | 1012.1 | |
| 20260510032520 | 33 | 0.0 | 0.0 | 0.00 | 0.00 | 0.00 | 92 | 1012.2 | |
| 20260510031520 | 32 | 0.0 | 0.0 | 0.00 | 0.00 | 0.00 | 92 | 1012.3 | |
| 20260510030519 | 32 | 0.0 | 0.0 | 0.00 | 0.00 | 0.00 | 92 | 1012.5 | |
| 20260510025519 | 32 | 0.0 | 0.0 | 0.00 | 0.00 | 0.00 | 92 | 1012.6 | |
| 20260510024520 | 32 | 0.0 | 0.0 | 0.00 | 0.00 | 0.00 | 91 | 1012.7 | |
| 20260510023520 | 32 | 0.0 | 0.0 | 0.00 | 0.00 | 0.00 | 91 | 1012.7 | |
| 20260510022520 | 33 | 0.0 | 0.0 | 0.00 | 0.00 | 0.00 | 91 | 1012.8 | |
| 20260510021518 | 33 | 0.0 | 0.0 | 0.00 | 0.00 | 0.00 | 90 | 1013.0 | |
| 20260510020522 | 33 | 0.0 | 0.0 | 0.00 | 0.00 | 0.00 | 90 | 1013.1 | |
| 20260510015520 | 34 | 0.0 | 0.0 | 0.00 | 0.00 | 0.00 | 90 | 1013.2 | |
| 20260510014518 | 33 | 0.0 | 0.0 | 0.00 | 0.00 | 0.00 | 90 | 1013.3 | |
| 20260510013518 | 34 | 0.0 | 0.0 | 0.00 | 0.00 | 0.00 | 89 | 1013.5 | |
| 20260510012541 | 34 | 0.0 | 0.0 | 0.00 | 0.00 | 0.00 | 88 | 1013.6 | |
| 20260510011522 | 35 | 0.0 | 0.0 | 0.00 | 0.00 | 0.00 | 86 | 1013.7 | |
| 20260510010520 | 36 | 0.0 | 0.0 | 0.00 | 0.00 | 0.00 | 85 | 1013.8 | |
| 20260510005520 | 37 | 0.0 | 0.0 | 0.00 | 0.00 | 0.00 | 86 | 1013.8 | |
| 20260510004600 | 37 | 0.0 | 0.0 | 0.00 | 0.00 | 0.00 | 86 | 1014.0 | |
| 20260510003518 | 37 | 0.0 | 0.0 | 0.00 | 0.00 | 0.00 | 85 | 1014.0 | |
| 20260510002520 | 37 | 0.0 | 0.0 | 0.00 | 0.00 | 0.00 | 86 | 1014.1 | |
| 20260510001520 | 38 | 0.0 | 0.0 | 0.00 | 0.00 | 0.00 | 85 | 1014.2 | |
| 20260510000521 | 38 | 0.0 | 0.0 | 0.00 | 0.00 | 0.00 | 85 | 1014.2 | |
| 20260509235520 | 38 | 0.0 | 0.0 | 0.00 | 0.00 | 0.00 | 85 | 1014.3 | |
| 20260509234520 | 39 | 0.0 | 0.0 | 0.00 | 0.00 | 0.00 | 85 | 1014.5 | |
| 20260509233520 | 39 | 0.0 | 0.0 | 0.00 | 0.00 | 0.00 | 84 | 1014.5 | |
| 20260509232520 | 39 | 0.0 | 3.0 | 0.00 | 0.00 | 0.00 | 84 | 1014.7 | |
| 20260509231607 | 39 | 0.0 | 2.0 | 0.00 | 0.00 | 0.00 | 84 | 1014.9 | |
| 20260509230540 | 39 | 0.0 | 2.0 | 0.00 | 0.00 | 0.00 | 84 | 1015.0 | |
| 20260509225520 | 39 | 0.0 | 0.0 | 0.00 | 0.00 | 0.00 | 84 | 1015.2 | |
| 20260509224518 | 39 | 0.0 | 1.0 | 0.00 | 0.00 | 0.00 | 84 | 1015.2 | |
| 20260509223520 | 39 | 0.0 | 2.0 | 0.00 | 0.00 | 0.00 | 84 | 1015.3 | |
| 20260509222520 | 39 | 0.0 | 1.0 | 0.00 | 0.00 | 0.00 | 85 | 1015.3 | |
| 20260509221520 | 39 | 0.0 | 1.0 | 0.00 | 0.00 | 0.00 | 85 | 1015.4 | |
| 20260509220520 | 38 | 0.0 | 0.0 | 0.00 | 0.00 | 0.00 | 84 | 1015.5 | |
| 20260509215539 | 38 | 0.0 | 1.0 | 0.00 | 0.00 | 0.00 | 84 | 1015.6 | |
| 20260509214520 | 37 | 0.0 | 0.0 | 0.00 | 0.00 | 0.00 | 83 | 1015.7 | |
| 20260509213520 | 38 | 0.0 | 0.0 | 0.00 | 0.00 | 0.00 | 82 | 1015.6 | |
| 20260509212520 | 38 | 0.0 | 0.0 | 0.00 | 0.00 | 0.00 | 81 | 1015.8 |